Time;durP1;ratioP1;P1;durP2;ratioP2;P2;SDS_P1;SDS_P2;PMS_P1;PMS_P2;Temp;Humidity;BMP_temperature;BMP_pressure;BME280_temperature;BME280_humidity;BME280_pressure;Samples;Min_cycle;Max_cycle;Signal;HPM_P1;HPM_P2
2021/09/18 00:04:39;;;;;;;4.03;3.70;;;;;;;10.53;94.12;96181.28;5225087;56;20136;-73
2021/09/18 00:09:42;;;;;;;4.03;3.63;;;;;;;10.36;94.74;96173.78;5225083;56;20140;-74
2021/09/18 00:14:44;;;;;;;4.28;3.88;;;;;;;10.58;94.69;96177.13;5224456;56;20122;-73
2021/09/18 00:19:47;;;;;;;5.03;3.90;;;;;;;10.52;94.85;96185.28;5224994;56;20105;-74
2021/09/18 00:24:49;;;;;;;4.10;3.80;;;;;;;10.37;94.94;96186.38;5225701;56;20127;-73
2021/09/18 00:29:52;;;;;;;3.97;3.55;;;;;;;10.28;95.24;96175.34;5225253;56;20631;-73
2021/09/18 00:34:54;;;;;;;4.05;3.67;;;;;;;10.30;95.19;96179.19;5227623;56;20118;-73
2021/09/18 00:39:57;;;;;;;3.65;3.35;;;;;;;10.25;94.51;96179.81;5229011;56;20592;-73
2021/09/18 00:45:00;;;;;;;10.52;4.15;;;;;;;10.23;94.46;96173.22;5228266;56;20105;-74
2021/09/18 00:50:04;;;;;;;5.45;4.30;;;;;;;10.18;94.42;96184.91;5226230;56;20118;-73
2021/09/18 00:55:07;;;;;;;6.43;3.95;;;;;;;10.06;94.47;96167.25;5226966;56;20165;-74
2021/09/18 01:00:13;;;;;;;4.22;3.83;;;;;;;10.09;94.56;96180.88;5224649;56;20145;-73
2021/09/18 01:05:16;;;;;;;5.05;4.28;;;;;;;10.12;94.45;96172.94;5225256;56;20135;-73
2021/09/18 01:10:18;;;;;;;4.60;4.07;;;;;;;10.06;94.49;96176.28;5223999;56;20144;-74
2021/09/18 01:15:20;;;;;;;4.80;3.85;;;;;;;10.06;94.50;96176.28;5224728;56;20118;-74
2021/09/18 01:20:23;;;;;;;5.78;4.03;;;;;;;10.00;93.89;96178.13;5225004;56;20252;-73
2021/09/18 01:25:27;;;;;;;4.95;3.85;;;;;;;9.99;94.48;96184.13;5225635;56;20220;-74
2021/09/18 01:30:32;;;;;;;5.03;3.85;;;;;;;9.90;94.64;96184.13;5226557;56;20158;-73
2021/09/18 01:35:35;;;;;;;8.88;4.65;;;;;;;9.87;95.00;96185.03;5226257;56;20140;-74
2021/09/18 01:40:41;;;;;;;10.10;4.65;;;;;;;9.88;94.60;96181.81;5225210;56;20225;-74
2021/09/18 01:45:44;;;;;;;11.18;4.22;;;;;;;9.86;94.78;96180.75;5223831;56;20231;-73
2021/09/18 01:50:52;;;;;;;7.25;4.18;;;;;;;9.87;94.92;96177.53;5225115;56;20136;-74
2021/09/18 01:55:55;;;;;;;6.05;4.25;;;;;;;9.82;94.96;96180.91;5223556;56;20183;-73
2021/09/18 02:01:01;;;;;;;6.43;4.82;;;;;;;9.90;95.27;96175.84;5224790;56;20213;-74
2021/09/18 02:06:04;;;;;;;6.25;4.45;;;;;;;9.86;95.04;96175.25;5223919;56;20113;-74
2021/09/18 02:11:07;;;;;;;4.60;4.13;;;;;;;9.85;94.91;96174.47;5223619;56;20123;-74
2021/09/18 02:16:09;;;;;;;4.90;4.15;;;;;;;9.81;94.08;96173.88;5223747;56;20135;-74
2021/09/18 02:21:11;;;;;;;5.38;4.05;;;;;;;9.69;94.33;96171.25;5224546;56;20122;-73
2021/09/18 02:26:14;;;;;;;5.18;4.03;;;;;;;9.78;94.78;96174.78;5224207;56;20126;-73
2021/09/18 02:31:17;;;;;;;6.82;3.53;;;;;;;9.66;94.82;96177.69;5223813;56;20127;-74
2021/09/18 02:36:19;;;;;;;3.67;3.35;;;;;;;9.77;95.44;96183.53;5225484;56;20122;-74
2021/09/18 02:41:22;;;;;;;6.43;3.38;;;;;;;9.80;95.00;96183.38;5217055;56;20760;-73
2021/09/18 02:46:24;;;;;;;3.63;3.25;;;;;;;9.64;94.68;96169.88;5225472;56;20219;-74
2021/09/18 02:51:27;;;;;;;4.85;3.70;;;;;;;9.63;94.64;96176.63;5228164;56;20220;-74
2021/09/18 02:56:29;;;;;;;7.65;3.40;;;;;;;9.57;95.46;96175.69;5224961;56;20245;-74
2021/09/18 03:01:31;;;;;;;3.25;2.95;;;;;;;9.60;95.24;96169.25;5225799;56;20249;-73
2021/09/18 03:06:34;;;;;;;3.75;3.05;;;;;;;9.54;94.67;96171.09;5230411;56;20091;-73
2021/09/18 03:11:37;;;;;;;4.65;3.70;;;;;;;9.51;94.57;96162.97;5230668;56;20126;-73
2021/09/18 03:16:39;;;;;;;3.70;3.40;;;;;;;9.55;94.28;96166.34;5228541;56;20122;-73
2021/09/18 03:21:41;;;;;;;4.63;3.92;;;;;;;9.46;94.67;96164.34;5233449;45;20235;-74
2021/09/18 03:26:45;;;;;;;4.97;4.00;;;;;;;9.34;95.65;96168.78;5222763;56;20187;-74
2021/09/18 03:31:47;;;;;;;4.43;3.53;;;;;;;9.34;95.12;96168.00;5222713;56;20149;-73
2021/09/18 03:36:50;;;;;;;4.28;3.85;;;;;;;9.46;95.31;96178.13;5213659;56;20666;-73
2021/09/18 03:41:53;;;;;;;3.88;3.42;;;;;;;9.49;95.32;96177.22;5222628;56;20123;-73
2021/09/18 03:46:55;;;;;;;3.65;3.25;;;;;;;9.65;94.18;96170.66;5222135;56;20785;-73
2021/09/18 03:51:58;;;;;;;3.67;3.38;;;;;;;9.46;94.79;96164.34;5222565;56;20339;-73
2021/09/18 03:57:00;;;;;;;4.05;3.65;;;;;;;9.40;94.04;96160.66;5222408;56;20186;-73
2021/09/18 04:02:02;;;;;;;3.92;3.55;;;;;;;9.35;94.99;96158.50;5222842;56;20227;-73
2021/09/18 04:07:05;;;;;;;3.67;3.35;;;;;;;9.38;94.87;96160.38;5222337;56;20220;-73
2021/09/18 04:12:08;;;;;;;4.80;3.53;;;;;;;9.31;94.79;96163.41;5222336;56;21030;-73
2021/09/18 04:17:10;;;;;;;5.32;3.53;;;;;;;9.28;94.33;96172.59;5213494;56;20140;-73
2021/09/18 04:22:12;;;;;;;4.25;3.80;;;;;;;9.14;94.33;96173.94;5222062;56;20586;-73
2021/09/18 04:27:15;;;;;;;4.10;3.75;;;;;;;9.08;94.98;96178.53;5221726;56;20122;-73
2021/09/18 04:32:17;;;;;;;5.35;3.95;;;;;;;9.12;95.24;96167.34;5221943;56;20247;-73
2021/09/18 04:37:20;;;;;;;9.95;4.22;;;;;;;9.27;94.94;96179.34;5221849;56;20741;-75
2021/09/18 04:42:22;;;;;;;4.28;3.28;;;;;;;9.24;94.76;96183.00;5221950;56;20245;-74
2021/09/18 04:47:25;;;;;;;4.15;3.70;;;;;;;9.21;95.45;96183.91;5221749;56;20226;-74
2021/09/18 04:52:27;;;;;;;4.20;3.60;;;;;;;9.20;95.00;96177.63;5221834;56;20674;-73
2021/09/18 04:57:30;;;;;;;4.50;3.45;;;;;;;9.17;94.43;96181.31;5221874;56;20216;-74
2021/09/18 05:02:33;;;;;;;4.05;3.38;;;;;;;9.09;94.42;96184.81;5221663;56;20309;-73
2021/09/18 05:07:36;;;;;;;3.55;3.20;;;;;;;9.03;94.83;96179.13;5222013;56;20210;-75
2021/09/18 05:12:38;;;;;;;4.45;3.70;;;;;;;9.04;94.76;96199.97;5221306;56;20583;-74
2021/09/18 05:17:41;;;;;;;3.53;3.08;;;;;;;9.12;94.96;96194.91;5221272;56;20245;-74
2021/09/18 05:22:43;;;;;;;7.53;3.42;;;;;;;9.29;94.94;96201.72;5221627;56;20680;-73
2021/09/18 05:27:46;;;;;;;7.75;3.90;;;;;;;9.52;94.23;96205.88;5221002;56;20163;-73
2021/09/18 05:32:48;;;;;;;4.93;4.40;;;;;;;9.54;93.86;96209.72;5221500;56;20228;-73
2021/09/18 05:37:50;;;;;;;7.97;3.85;;;;;;;9.58;94.49;96207.56;5220349;56;20668;-73
2021/09/18 05:42:53;;;;;;;4.82;3.97;;;;;;;9.72;93.79;96212.50;5212435;56;20123;-75
2021/09/18 05:47:56;;;;;;;5.32;4.13;;;;;;;9.85;94.43;96212.34;5221639;56;20135;-73
2021/09/18 05:52:58;;;;;;;6.60;3.65;;;;;;;9.96;93.95;96213.41;5221375;56;20217;-73
2021/09/18 05:58:01;;;;;;;4.28;3.85;;;;;;;10.24;93.81;96211.44;5220768;56;20186;-74
2021/09/18 06:03:03;;;;;;;4.65;3.70;;;;;;;10.43;93.82;96215.69;5221090;56;20130;-74
2021/09/18 06:08:06;;;;;;;4.50;3.97;;;;;;;10.60;93.48;96218.88;5221044;56;20179;-72
2021/09/18 06:13:09;;;;;;;6.18;3.63;;;;;;;10.87;94.11;96216.03;5220974;56;20240;-73
2021/09/18 06:18:11;;;;;;;4.68;4.22;;;;;;;10.99;94.90;96226.09;5220578;56;20527;-73
2021/09/18 06:23:13;;;;;;;3.75;3.40;;;;;;;11.17;95.13;96220.47;5220235;56;20668;-73
2021/09/18 06:28:16;;;;;;;5.00;4.47;;;;;;;11.36;95.47;96219.16;5219701;56;20742;-74
2021/09/18 06:33:19;;;;;;;5.50;4.00;;;;;;;11.61;95.01;96226.22;5220412;56;20617;-73
2021/09/18 06:38:22;;;;;;;6.53;4.22;;;;;;;11.84;95.31;96227.50;5220069;56;20321;-73
2021/09/18 06:43:28;;;;;;;6.32;4.72;;;;;;;11.98;96.10;96227.56;5219306;56;20179;-74
2021/09/18 06:48:30;;;;;;;8.35;4.93;;;;;;;12.31;95.34;96223.88;5215196;56;20312;-72
2021/09/18 06:53:33;;;;;;;8.18;5.38;;;;;;;12.56;95.88;96232.41;5223435;56;20234;-74
2021/09/18 06:58:35;;;;;;;9.45;6.50;;;;;;;12.80;95.15;96224.75;5222144;56;20118;-74
2021/09/18 07:03:39;;;;;;;12.20;7.00;;;;;;;13.07;92.97;96239.59;5223158;56;20221;-73
2021/09/18 07:08:42;;;;;;;9.68;7.53;;;;;;;13.34;92.25;96228.16;5221369;56;20118;-73
2021/09/18 07:13:44;;;;;;;11.30;7.05;;;;;;;13.65;90.82;96231.88;5222989;56;20617;-74
2021/09/18 07:18:47;;;;;;;13.25;7.47;;;;;;;13.95;91.93;96237.31;5222133;56;20181;-74
2021/09/18 07:23:49;;;;;;;11.23;7.55;;;;;;;14.19;90.76;96246.16;5213900;56;20127;-74
2021/09/18 07:28:52;;;;;;;11.95;8.02;;;;;;;14.37;89.45;96251.47;5220693;56;20122;-74
2021/09/18 07:33:54;;;;;;;14.05;9.40;;;;;;;14.57;87.77;96248.63;5221327;56;20249;-74
2021/09/18 07:38:56;;;;;;;13.05;8.68;;;;;;;14.85;86.00;96257.25;5218435;56;20143;-75
2021/09/18 07:44:00;;;;;;;11.23;8.27;;;;;;;15.11;83.77;96266.31;5219743;56;20213;-75
2021/09/18 07:49:03;;;;;;;10.50;7.60;;;;;;;15.20;83.74;96268.19;5221358;56;20170;-74
2021/09/18 07:54:05;;;;;;;9.70;6.97;;;;;;;15.48;84.79;96253.25;5219022;56;20175;-74
2021/09/18 07:59:08;;;;;;;8.68;7.10;;;;;;;15.78;84.49;96248.09;5219336;56;20117;-74
2021/09/18 08:04:10;;;;;;;9.43;7.75;;;;;;;15.99;82.10;96248.72;5218203;56;20704;-74
2021/09/18 08:09:13;;;;;;;11.85;6.97;;;;;;;16.15;82.71;96248.00;5220742;56;20699;-74
2021/09/18 08:14:15;;;;;;;9.38;6.70;;;;;;;16.45;78.91;96249.13;5210292;56;20236;-74
2021/09/18 08:19:19;;;;;;;10.80;6.85;;;;;;;16.58;79.13;96252.25;5211428;56;20221;-74
2021/09/18 08:24:21;;;;;;;9.13;6.90;;;;;;;16.76;76.59;96251.03;5219519;56;20130;-74
2021/09/18 08:29:24;;;;;;;9.93;6.60;;;;;;;16.86;77.14;96246.72;5220548;56;20109;-74
2021/09/18 08:34:26;;;;;;;6.25;5.65;;;;;;;17.09;72.97;96251.81;5220468;56;20126;-73
2021/09/18 08:39:28;;;;;;;5.68;5.18;;;;;;;17.55;70.92;96242.94;5214829;56;20224;-73
2021/09/18 08:44:33;;;;;;;8.98;6.03;;;;;;;18.40;71.62;96245.72;5221144;56;20195;-74
2021/09/18 08:49:35;;;;;;;6.53;5.35;;;;;;;19.46;64.94;96251.41;5220875;56;20171;-73
2021/09/18 08:54:41;;;;;;;5.65;5.03;;;;;;;20.30;59.47;96252.09;5215109;56;20237;-75
2021/09/18 08:59:43;;;;;;;7.50;5.20;;;;;;;20.76;56.56;96250.97;5220817;56;20105;-74
2021/09/18 09:04:46;;;;;;;10.10;5.70;;;;;;;20.45;57.38;96251.66;5221105;56;20226;-73
2021/09/18 09:09:58;;;;;;;6.20;5.60;;;;;;;21.19;56.87;96234.03;5220882;56;20712;-73
2021/09/18 09:15:04;;;;;;;6.95;5.88;;;;;;;21.68;57.04;96246.50;5221099;56;20149;-73
2021/09/18 09:20:22;;;;;;;5.90;4.30;;;;;;;21.33;52.62;96247.59;5220844;56;20132;-73
2021/09/18 09:25:27;;;;;;;6.53;4.88;;;;;;;21.75;53.11;96228.22;5220567;56;20114;-72
2021/09/18 09:30:35;;;;;;;5.28;4.80;;;;;;;22.22;53.04;96237.56;5221204;56;20105;-73
2021/09/18 09:35:37;;;;;;;5.17;4.40;;;;;;;22.18;54.97;96228.69;5220716;56;20760;-74
2021/09/18 09:40:45;;;;;;;4.30;3.90;;;;;;;22.78;51.99;96235.13;5220654;56;20633;-74
2021/09/18 09:45:48;;;;;;;;;;;;;;;22.63;48.84;96234.94;5220746;56;20131;-75
2021/09/18 09:51:01;;;;;;;4.43;3.50;;;;;;;23.03;50.53;96226.38;5220473;56;19974;-76
2021/09/18 09:56:24;;;;;;;3.75;3.42;;;;;;;23.26;48.09;96225.31;5213137;56;20136;-75
2021/09/18 10:01:28;;;;;;;3.85;3.55;;;;;;;23.93;47.68;96238.47;5220786;56;20117;-75
2021/09/18 10:06:31;;;;;;;3.40;3.10;;;;;;;23.48;47.92;96227.59;5217881;56;20117;-75
2021/09/18 10:11:34;;;;;;;2.92;2.58;;;;;;;23.22;47.86;96230.53;5220574;56;20122;-76
2021/09/18 10:16:37;;;;;;;4.70;3.75;;;;;;;22.90;44.20;96215.91;5220171;56;20595;-74
2021/09/18 10:26:32;;;;;;;2.65;2.53;;;;;;;22.47;46.15;96199.44;5388409;54;20589;-76
2021/09/18 10:31:34;;;;;;;3.33;2.63;;;;;;;22.33;54.42;96200.75;5365572;55;20099;-76
2021/09/18 10:36:43;;;;;;;2.67;2.28;;;;;;;23.46;45.11;96202.00;5364826;55;20121;-75
2021/09/18 10:41:54;;;;;;;3.60;2.13;;;;;;;23.25;45.46;96203.28;5365022;55;20588;-74
2021/09/18 10:47:00;;;;;;;2.30;2.20;;;;;;;23.14;46.34;96207.13;5364812;55;20112;-74
2021/09/18 10:52:17;;;;;;;11.40;3.53;;;;;;;22.71;45.42;96201.22;5364964;55;20669;-74
2021/09/18 10:57:20;;;;;;;2.67;2.33;;;;;;;22.94;42.09;96207.09;5364529;55;20112;-75
2021/09/18 11:02:32;;;;;;;2.97;2.13;;;;;;;23.47;42.15;96211.22;5364358;55;20120;-76
2021/09/18 11:07:40;;;;;;;2.20;2.10;;;;;;;23.93;44.16;96215.13;5364360;55;20121;-76
2021/09/18 11:13:06;;;;;;;3.03;2.70;;;;;;;23.22;43.97;96193.13;5378406;55;20112;-75
2021/09/18 11:18:17;;;;;;;2.35;2.20;;;;;;;22.95;44.91;96192.47;5366865;55;20134;-75
2021/09/18 11:23:36;;;;;;;2.45;2.00;;;;;;;23.38;45.55;96191.97;5355660;55;20107;-76
2021/09/18 11:28:38;;;;;;;1.70;1.60;;;;;;;24.47;45.96;96189.50;5354967;55;20116;-75
2021/09/18 11:33:48;;;;;;;2.65;2.45;;;;;;;21.94;46.29;96187.44;5352855;55;20117;-75
2021/09/18 11:38:50;;;;;;;5.25;2.53;;;;;;;22.66;47.45;96180.31;5349508;55;20198;-76
2021/09/18 11:43:52;;;;;;;1.98;1.88;;;;;;;21.78;44.35;96184.94;5345581;55;20136;-77
2021/09/18 11:48:59;;;;;;;2.00;1.83;;;;;;;22.54;42.89;96181.88;5349224;55;20099;-75
2021/09/18 11:54:06;;;;;;;2.05;1.65;;;;;;;23.30;42.78;96177.00;5349586;55;20117;-76
2021/09/18 11:59:09;;;;;;;2.63;2.42;;;;;;;23.19;42.38;96177.28;5346538;55;20113;-74
2021/09/18 12:04:11;;;;;;;2.50;2.30;;;;;;;23.80;43.76;96176.50;5349278;55;20593;-75
2021/09/18 12:09:14;;;;;;;2.35;2.15;;;;;;;23.53;44.38;96184.41;5342476;55;20112;-76
2021/09/18 12:14:29;;;;;;;2.25;1.60;;;;;;;24.77;37.86;96161.38;5349593;55;20117;-77
2021/09/18 12:19:33;;;;;;;3.03;1.73;;;;;;;25.18;36.73;96160.31;5349147;55;20144;-76
2021/09/18 12:24:37;;;;;;;1.42;1.33;;;;;;;24.27;36.25;96155.72;5349008;55;20687;-77
2021/09/18 12:30:16;;;;;;;1.13;1.13;;;;;;;23.65;35.69;96151.00;5349060;55;20135;-75
2021/09/18 12:35:18;;;;;;;1.40;1.30;;;;;;;23.14;36.87;96150.00;5342023;55;20112;-76
2021/09/18 12:40:20;;;;;;;1.30;1.25;;;;;;;23.35;37.58;96160.00;5348496;55;20086;-75
2021/09/18 12:45:26;;;;;;;1.42;1.42;;;;;;;23.59;35.94;96147.56;5348343;55;20700;-75
2021/09/18 12:50:28;;;;;;;1.60;1.50;;;;;;;24.30;38.23;96143.28;5348877;55;20126;-75
2021/09/18 12:55:31;;;;;;;1.33;1.33;;;;;;;25.18;38.17;96146.19;5349021;55;20117;-75
2021/09/18 13:00:33;;;;;;;1.40;1.30;;;;;;;25.93;39.26;96141.81;5347944;55;20112;-76
2021/09/18 13:05:35;;;;;;;1.13;1.10;;;;;;;26.30;36.37;96152.31;5348124;55;20236;-74
2021/09/18 13:10:38;;;;;;;1.55;1.42;;;;;;;25.45;34.36;96147.34;5348408;55;20585;-75
2021/09/18 13:15:40;;;;;;;1.70;1.60;;;;;;;25.36;35.05;96139.41;5348143;55;20143;-75
2021/09/18 13:20:42;;;;;;;5.38;1.80;;;;;;;25.47;42.13;96129.81;5348399;55;20116;-75
2021/09/18 13:25:45;;;;;;;1.80;1.70;;;;;;;24.25;43.19;96133.66;5348566;55;20121;-76
2021/09/18 13:30:47;;;;;;;1.80;1.70;;;;;;;23.12;45.26;96127.22;5339139;55;20099;-76
2021/09/18 13:35:49;;;;;;;2.83;1.95;;;;;;;22.20;46.38;96124.75;5338299;55;20555;-76
2021/09/18 13:40:52;;;;;;;2.22;2.13;;;;;;;23.02;43.56;96131.84;5348211;55;20152;-76
2021/09/18 13:45:54;;;;;;;2.20;2.00;;;;;;;24.02;44.56;96125.06;5337953;55;20589;-76
2021/09/18 13:50:57;;;;;;;1.83;1.73;;;;;;;23.88;42.08;96117.28;5335823;55;20126;-75
2021/09/18 13:55:59;;;;;;;1.80;1.70;;;;;;;22.18;43.67;96123.78;5347570;55;20108;-76
2021/09/18 14:01:03;;;;;;;2.20;1.73;;;;;;;21.64;45.19;96116.69;5338042;55;20122;-76
2021/09/18 14:06:06;;;;;;;1.88;1.77;;;;;;;20.94;46.46;96120.25;5347333;55;20174;-74
2021/09/18 14:11:09;;;;;;;1.75;1.65;;;;;;;21.01;46.54;96105.56;5338392;55;20108;-75
2021/09/18 14:16:11;;;;;;;1.50;1.40;;;;;;;20.83;46.73;96112.72;5358728;55;20131;-75
2021/09/18 14:21:14;;;;;;;3.97;1.65;;;;;;;20.77;49.38;96102.88;5348677;55;20664;-76
2021/09/18 14:26:16;;;;;;;2.63;1.60;;;;;;;20.72;46.54;96093.25;5347071;55;20125;-76
2021/09/18 14:31:18;;;;;;;1.48;1.38;;;;;;;20.80;47.42;96099.78;5347012;55;20638;-76
2021/09/18 14:36:22;;;;;;;1.65;1.55;;;;;;;21.87;43.68;96089.63;5346831;55;20218;-76
2021/09/18 14:41:24;;;;;;;1.50;1.40;;;;;;;22.11;42.82;96095.03;5346927;55;20165;-76
2021/09/18 14:46:26;;;;;;;1.98;1.48;;;;;;;21.56;43.82;96089.75;5346772;55;20117;-75
2021/09/18 14:51:29;;;;;;;1.90;1.80;;;;;;;21.52;45.94;96094.94;5347221;55;20121;-75
2021/09/18 14:56:32;;;;;;;1.50;1.40;;;;;;;21.60;45.64;96095.81;5342706;55;20585;-76
2021/09/18 15:01:34;;;;;;;1.55;1.45;;;;;;;22.33;44.45;96087.38;5346581;55;20652;-76
2021/09/18 15:06:37;;;;;;;2.10;1.20;;;;;;;22.79;47.11;96080.94;5346757;55;20151;-76
2021/09/18 15:11:39;;;;;;;1.52;1.42;;;;;;;22.00;47.28;96074.81;5349183;55;20679;-76
2021/09/18 15:16:42;;;;;;;1.70;1.60;;;;;;;21.83;43.01;96071.53;5350175;55;20139;-75
2021/09/18 15:21:44;;;;;;;2.00;1.80;;;;;;;21.89;46.79;96075.03;5350257;55;20104;-75
2021/09/18 15:26:47;;;;;;;1.95;1.85;;;;;;;21.29;45.63;96067.25;5349889;55;20135;-75
2021/09/18 15:31:50;;;;;;;3.95;2.00;;;;;;;21.17;45.85;96065.94;5350018;55;20202;-75
2021/09/18 15:36:52;;;;;;;1.77;1.67;;;;;;;21.14;44.89;96066.28;5349929;55;20218;-76
2021/09/18 15:41:55;;;;;;;2.00;1.90;;;;;;;20.81;47.50;96064.78;5350135;55;20117;-75
2021/09/18 15:46:57;;;;;;;1.77;1.67;;;;;;;20.76;47.02;96064.88;5350050;55;20117;-75
2021/09/18 15:51:59;;;;;;;1.70;1.60;;;;;;;20.68;45.67;96056.31;5349760;55;20147;-74
2021/09/18 15:57:02;;;;;;;2.00;1.90;;;;;;;20.54;44.55;96051.94;5349325;55;20122;-75
2021/09/18 16:02:04;;;;;;;4.63;1.70;;;;;;;20.37;44.16;96057.84;5349730;55;20113;-75
2021/09/18 16:07:07;;;;;;;1.80;1.70;;;;;;;20.28;45.90;96051.88;5342633;44;20119;-73
2021/09/18 16:12:10;;;;;;;1.92;1.83;;;;;;;20.17;45.02;96052.00;5309793;55;20137;-73
2021/09/18 16:17:12;;;;;;;2.00;1.65;;;;;;;19.96;47.41;96057.41;5300544;55;20110;-73
2021/09/18 16:22:14;;;;;;;6.10;2.00;;;;;;;19.85;49.10;96047.09;5299461;55;20652;-73
2021/09/18 16:27:17;;;;;;;2.00;1.80;;;;;;;19.57;50.30;96054.34;5300723;55;20119;-73
2021/09/18 16:32:19;;;;;;;2.35;2.15;;;;;;;19.65;48.87;96046.84;5308826;55;20105;-73
2021/09/18 16:37:22;;;;;;;2.30;1.80;;;;;;;19.74;48.56;96046.50;5309563;55;20115;-73
2021/09/18 16:42:25;;;;;;;2.03;1.90;;;;;;;19.33;52.05;96053.06;5302439;55;20110;-74
2021/09/18 16:47:28;;;;;;;2.15;1.90;;;;;;;19.00;54.43;96061.81;5325775;55;20238;-73
2021/09/18 16:52:31;;;;;;;2.75;2.22;;;;;;;18.75;54.03;96062.34;5312785;55;20163;-73
2021/09/18 16:57:34;;;;;;;3.65;2.00;;;;;;;18.40;62.87;96061.06;5316411;55;20166;-71
2021/09/18 17:02:38;;;;;;;2.10;2.00;;;;;;;18.20;61.58;96061.47;5318195;55;20105;-73
2021/09/18 17:07:41;;;;;;;2.30;1.98;;;;;;;17.97;65.08;96057.28;5305605;55;20220;-73
2021/09/18 17:12:44;;;;;;;2.20;2.00;;;;;;;17.60;72.57;96059.78;5308679;55;20627;-72
2021/09/18 17:17:46;;;;;;;2.35;2.15;;;;;;;17.23;75.31;96054.56;5310528;55;20137;-72
2021/09/18 17:22:49;;;;;;;3.45;2.13;;;;;;;17.06;74.80;96059.44;5311384;55;20118;-74
2021/09/18 17:27:51;;;;;;;2.80;2.60;;;;;;;16.89;74.62;96065.03;5306204;55;20140;-73
2021/09/18 17:32:53;;;;;;;2.45;2.25;;;;;;;16.65;77.81;96062.03;5308602;55;20535;-72
2021/09/18 17:37:56;;;;;;;2.17;2.08;;;;;;;16.62;78.33;96068.66;5307261;55;20280;-72
2021/09/18 17:42:58;;;;;;;3.78;2.00;;;;;;;16.54;78.13;96072.44;5301345;55;20119;-73
2021/09/18 17:48:00;;;;;;;2.72;2.20;;;;;;;16.17;80.62;96072.66;5304635;55;20127;-73
2021/09/18 17:53:11;;;;;;;2.15;2.05;;;;;;;15.84;81.72;96078.94;5296479;55;20671;-74
2021/09/18 17:58:13;;;;;;;3.15;2.28;;;;;;;15.70;82.69;96083.44;5307687;55;20114;-73
2021/09/18 18:03:15;;;;;;;3.00;2.70;;;;;;;15.55;83.74;96087.69;5308305;55;20109;-72
2021/09/18 18:08:18;;;;;;;3.45;3.15;;;;;;;15.45;82.90;96089.94;5306496;55;20230;-73
2021/09/18 18:13:21;;;;;;;3.60;3.30;;;;;;;15.48;82.73;96091.72;5302206;55;20114;-74
2021/09/18 18:18:24;;;;;;;4.20;3.80;;;;;;;15.45;82.81;96087.16;5306944;55;20114;-74
2021/09/18 18:23:26;;;;;;;3.67;3.38;;;;;;;15.40;83.62;96095.47;5312176;55;20114;-73
2021/09/18 18:28:29;;;;;;;4.70;3.67;;;;;;;15.33;84.44;96090.38;5307945;55;20123;-73
2021/09/18 18:33:31;;;;;;;4.30;3.80;;;;;;;15.23;84.83;96095.38;5310014;55;20122;-72
2021/09/18 18:38:33;;;;;;;4.65;4.22;;;;;;;15.11;85.50;96099.34;5299791;55;20127;-73
2021/09/18 18:43:36;;;;;;;4.10;3.80;;;;;;;15.03;85.87;96096.28;5306231;55;20124;-74
2021/09/18 18:48:38;;;;;;;3.70;3.35;;;;;;;14.95;86.31;96111.13;5293052;55;20120;-73
2021/09/18 18:53:41;;;;;;;10.35;4.57;;;;;;;14.77;87.18;96105.94;5290613;56;20129;-73
2021/09/18 18:58:43;;;;;;;4.68;4.20;;;;;;;14.61;87.53;96110.13;5308905;55;20120;-73
2021/09/18 19:03:46;;;;;;;4.53;4.13;;;;;;;14.53;88.09;96111.09;5299518;55;20111;-73
2021/09/18 19:08:49;;;;;;;4.90;4.07;;;;;;;14.45;88.46;96113.53;5304701;55;20123;-72
2021/09/18 19:13:51;;;;;;;4.65;4.20;;;;;;;14.43;88.60;96107.72;5331059;55;20173;-71
2021/09/18 19:18:53;;;;;;;4.47;4.07;;;;;;;14.29;89.16;96114.91;5311684;55;20112;-74
2021/09/18 19:23:56;;;;;;;4.55;4.15;;;;;;;14.26;88.77;96113.09;5296792;55;20116;-76
2021/09/18 19:28:58;;;;;;;4.18;3.58;;;;;;;14.08;89.71;96116.22;5285099;55;20123;-72
2021/09/18 19:34:01;;;;;;;8.02;3.90;;;;;;;13.99;90.12;96112.84;5310890;55;20119;-74
2021/09/18 19:39:04;;;;;;;5.38;4.47;;;;;;;13.94;90.15;96116.31;5293630;55;20106;-73
2021/09/18 19:44:06;;;;;;;5.82;4.28;;;;;;;13.87;90.45;96130.63;5309925;55;20111;-72
2021/09/18 19:49:09;;;;;;;3.80;3.50;;;;;;;13.78;90.68;96119.66;5310044;55;20128;-73
2021/09/18 19:54:12;;;;;;;4.18;3.80;;;;;;;13.74;90.88;96117.13;5310504;55;20702;-72
2021/09/18 19:59:14;;;;;;;6.80;4.78;;;;;;;13.69;91.17;96120.59;5309926;55;20127;-73
2021/09/18 20:04:16;;;;;;;5.15;4.32;;;;;;;13.51;91.62;96113.31;5305222;55;20673;-73
2021/09/18 20:09:19;;;;;;;8.10;4.22;;;;;;;13.54;91.55;96114.34;5306685;55;20586;-73
2021/09/18 20:14:21;;;;;;;6.68;4.68;;;;;;;13.63;91.25;96119.75;5302863;55;20123;-73
2021/09/18 20:19:23;;;;;;;5.05;4.35;;;;;;;13.36;91.44;96114.63;5308874;55;20128;-72
2021/09/18 20:24:27;;;;;;;6.68;5.10;;;;;;;13.24;91.90;96110.19;5311785;55;20149;-74
2021/09/18 20:29:29;;;;;;;5.47;4.82;;;;;;;13.16;92.45;96112.59;5310453;55;20131;-75
2021/09/18 20:34:32;;;;;;;6.15;4.82;;;;;;;13.06;92.75;96108.44;5311798;55;20127;-74
2021/09/18 20:39:34;;;;;;;5.28;4.78;;;;;;;12.98;92.83;96096.94;5326600;55;20132;-75
2021/09/18 20:44:37;;;;;;;6.40;4.63;;;;;;;13.26;92.30;96107.69;5320663;55;20118;-74
2021/09/18 20:49:40;;;;;;;5.70;5.20;;;;;;;13.12;92.07;96097.41;5314401;55;20105;-75
2021/09/18 20:54:42;;;;;;;5.07;4.53;;;;;;;13.01;92.24;96102.78;5302260;55;20175;-76
2021/09/18 20:59:47;;;;;;;4.70;4.30;;;;;;;12.99;93.35;96103.25;5314955;55;20136;-75
2021/09/18 21:04:49;;;;;;;6.57;4.63;;;;;;;12.90;92.75;96095.84;5326253;55;20105;-75
2021/09/18 21:09:51;;;;;;;5.95;5.05;;;;;;;12.73;92.78;96100.34;5299809;55;20543;-76
2021/09/18 21:14:54;;;;;;;7.15;5.25;;;;;;;12.60;93.80;96088.81;5306983;55;20118;-76
2021/09/18 21:19:56;;;;;;;6.40;5.65;;;;;;;12.48;94.32;96092.69;5309647;55;20110;-76
2021/09/18 21:24:58;;;;;;;6.75;6.05;;;;;;;12.46;95.06;96100.69;5314800;55;20101;-75
2021/09/18 21:30:01;;;;;;;6.68;5.97;;;;;;;12.55;94.37;96089.50;5309669;55;20127;-77
2021/09/18 21:35:06;;;;;;;6.47;5.80;;;;;;;12.61;94.05;96084.81;5311059;55;20124;-74
2021/09/18 21:40:09;;;;;;;5.93;5.32;;;;;;;12.54;93.32;96079.69;5307037;55;20114;-75
2021/09/18 21:45:11;;;;;;;6.55;5.13;;;;;;;12.52;93.50;96073.84;5314677;55;20202;-75
2021/09/18 21:50:13;;;;;;;10.18;6.20;;;;;;;12.38;93.86;96076.63;5315437;55;20235;-76
2021/09/18 21:55:16;;;;;;;6.25;5.18;;;;;;;12.30;93.35;96081.06;5310562;55;20118;-76
2021/09/18 22:00:21;;;;;;;8.13;5.90;;;;;;;12.30;93.92;96078.28;5311822;55;20747;-76
2021/09/18 22:05:24;;;;;;;6.47;5.13;;;;;;;12.09;93.48;96080.97;5304363;55;20585;-76
2021/09/18 22:10:26;;;;;;;6.32;5.72;;;;;;;12.01;94.52;96073.50;5309260;55;20153;-75
2021/09/18 22:15:29;;;;;;;7.53;6.18;;;;;;;11.94;94.51;96063.56;5309581;55;20111;-75
2021/09/18 22:20:31;;;;;;;5.75;5.22;;;;;;;11.91;94.32;96064.53;5311635;55;20149;-76
2021/09/18 22:25:34;;;;;;;6.53;5.38;;;;;;;11.91;93.99;96066.53;5313786;55;20114;-75
2021/09/18 22:30:36;;;;;;;6.25;5.65;;;;;;;11.94;93.87;96060.81;5309401;55;20133;-74
2021/09/18 22:35:38;;;;;;;6.38;5.30;;;;;;;11.80;93.91;96056.03;5305315;55;20114;-76
2021/09/18 22:40:41;;;;;;;7.75;5.35;;;;;;;11.88;94.62;96059.19;5312150;55;20102;-75
2021/09/18 22:45:43;;;;;;;6.47;5.22;;;;;;;11.90;94.29;96048.38;5308799;55;20141;-76
2021/09/18 22:50:46;;;;;;;5.30;4.80;;;;;;;11.91;93.77;96044.41;5309458;56;20127;-75
2021/09/18 22:55:48;;;;;;;4.72;4.30;;;;;;;11.71;93.72;96042.28;5312884;55;20127;-74
2021/09/18 23:00:51;;;;;;;5.40;4.80;;;;;;;11.61;94.04;96040.03;5315649;55;20122;-76
2021/09/18 23:05:53;;;;;;;4.95;4.45;;;;;;;11.53;94.32;96039.66;5309444;56;20128;-76
2021/09/18 23:10:56;;;;;;;5.93;5.03;;;;;;;11.59;93.81;96039.75;5294454;44;20668;-74
2021/09/18 23:15:58;;;;;;;6.40;5.32;;;;;;;11.47;93.82;96022.94;5282911;56;20129;-75
2021/09/18 23:21:01;;;;;;;6.05;5.43;;;;;;;11.37;93.96;96023.53;5282466;56;20651;-75
2021/09/18 23:26:06;;;;;;;6.88;5.63;;;;;;;11.46;94.33;96037.28;5282490;56;20659;-74
2021/09/18 23:31:08;;;;;;;6.03;5.45;;;;;;;11.46;94.60;96026.22;5283554;56;20116;-74
2021/09/18 23:36:11;;;;;;;6.05;5.45;;;;;;;11.38;94.56;96034.09;5276870;56;20659;-75
2021/09/18 23:41:13;;;;;;;7.45;6.00;;;;;;;11.24;94.72;96029.28;5285902;56;20186;-74
2021/09/18 23:46:15;;;;;;;6.15;5.40;;;;;;;11.15;95.32;96023.84;5285509;56;20142;-75
2021/09/18 23:51:18;;;;;;;7.78;6.75;;;;;;;11.14;95.12;96027.84;5285495;56;20177;-74
2021/09/18 23:56:20;;;;;;;6.88;5.95;;;;;;;11.12;94.99;96013.75;5285705;56;20175;-74
